createdAt,value
2023-03-29T00:03:02.129Z,0
2023-03-29T00:08:08.447Z,0
2023-03-29T00:13:14.776Z,-0.1
2023-03-29T00:18:21.096Z,-0.1
2023-03-29T00:23:27.421Z,-0.2
2023-03-29T00:28:33.762Z,-0.1
2023-03-29T00:33:39.195Z,-0.2
2023-03-29T00:38:45.538Z,-0.1
2023-03-29T00:43:51.846Z,0
2023-03-29T00:48:58.195Z,-0.1
2023-03-29T00:54:04.517Z,-0.2
2023-03-29T00:59:10.834Z,-0.1
2023-03-29T01:04:17.174Z,-0.1
2023-03-29T01:09:23.485Z,-0.2
2023-03-29T01:14:29.830Z,-0.4
2023-03-29T01:19:36.159Z,-0.5
2023-03-29T01:24:42.476Z,-0.5
2023-03-29T01:29:48.798Z,-0.3
2023-03-29T01:34:55.127Z,-0.3
2023-03-29T01:40:00.596Z,-0.3
2023-03-29T01:45:06.917Z,-0.3
2023-03-29T01:50:13.223Z,-0.3
2023-03-29T01:55:19.543Z,-0.4
2023-03-29T02:00:25.905Z,-0.4
2023-03-29T02:05:32.210Z,-0.4
2023-03-29T02:10:38.586Z,-0.3
2023-03-29T02:15:44.878Z,-0.3
2023-03-29T02:20:51.191Z,0
2023-03-29T02:25:57.527Z,0
2023-03-29T02:31:03.850Z,-0.1
2023-03-29T02:36:10.167Z,-0.2
2023-03-29T02:41:16.514Z,-0.2
2023-03-29T02:46:21.945Z,-0.1
2023-03-29T02:51:28.297Z,-0.2
2023-03-29T02:56:34.642Z,-0.3
2023-03-29T03:01:40.934Z,-0.3
2023-03-29T03:06:47.270Z,-0.4
2023-03-29T03:11:53.594Z,-0.4
2023-03-29T03:16:59.914Z,-0.4
2023-03-29T03:22:06.250Z,-0.4
2023-03-29T03:27:12.577Z,-0.3
2023-03-29T03:32:18.887Z,-0.3
2023-03-29T03:37:25.222Z,-0.4
2023-03-29T03:42:31.540Z,-0.5
2023-03-29T03:52:44.184Z,-0.5
2023-03-29T03:57:49.647Z,-0.6
2023-03-29T04:02:55.975Z,-0.8
2023-03-29T04:08:02.314Z,-1
2023-03-29T04:13:08.631Z,-1
2023-03-29T04:18:14.085Z,-1
2023-03-29T04:23:20.399Z,-0.6
2023-03-29T04:28:26.748Z,-0.6
2023-03-29T04:33:33.070Z,-0.6
2023-03-29T04:38:39.387Z,-0.6
2023-03-29T04:43:45.726Z,-0.6
2023-03-29T04:48:52.038Z,-0.3
2023-03-29T04:53:58.368Z,0
2023-03-29T04:59:04.714Z,0
2023-03-29T05:04:11.049Z,0.1
2023-03-29T05:09:17.362Z,0.2
2023-03-29T05:14:23.675Z,0.2
2023-03-29T05:19:30.017Z,0.2
2023-03-29T05:24:35.522Z,0.3
2023-03-29T05:29:41.801Z,0.5
2023-03-29T05:34:48.111Z,0.8
2023-03-29T05:39:54.456Z,1
2023-03-29T05:45:00.759Z,1.1
2023-03-29T05:50:07.096Z,1.2
2023-03-29T05:55:13.420Z,1.4
2023-03-29T06:00:19.755Z,1.5
2023-03-29T06:05:26.080Z,1.8
2023-03-29T06:10:32.394Z,2.1
2023-03-29T06:15:38.725Z,2.2
2023-03-29T06:20:45.053Z,2.3
2023-03-29T06:25:51.415Z,2.6
2023-03-29T06:30:56.822Z,2.8
2023-03-29T07:37:19.055Z,7
2023-03-29T07:42:24.522Z,6.5
2023-03-29T07:47:29.976Z,6.8
2023-03-29T07:52:36.292Z,7.1
2023-03-29T07:57:42.614Z,6.7
2023-03-29T08:02:48.946Z,6.7
2023-03-29T08:07:55.256Z,6.8
2023-03-29T08:13:01.587Z,7.2
2023-03-29T08:18:07.924Z,7.4
2023-03-29T08:23:14.240Z,7.4
2023-03-29T08:28:20.572Z,7.3
2023-03-29T08:33:26.905Z,6.9
2023-03-29T08:38:33.200Z,7.6
2023-03-29T08:43:38.728Z,7.4
2023-03-29T08:48:44.124Z,7.4
2023-03-29T08:53:50.480Z,7
2023-03-29T08:58:56.760Z,7.2
2023-03-29T09:04:03.096Z,8.1
2023-03-29T09:09:09.417Z,7.4
2023-03-29T09:14:15.727Z,7.8
2023-03-29T09:19:22.062Z,7.8
2023-03-29T09:24:28.386Z,7.8
2023-03-29T09:29:34.696Z,9
2023-03-29T09:34:41.021Z,8.1
2023-03-29T09:39:46.498Z,8.9
2023-03-29T09:44:52.794Z,10.3
2023-03-29T09:49:58.281Z,10.7
2023-03-29T09:55:04.601Z,9.4
2023-03-29T10:00:10.910Z,9.1
2023-03-29T10:05:17.238Z,9.2
2023-03-29T10:10:23.543Z,9.2
2023-03-29T10:15:29.869Z,9.2
2023-03-29T10:20:36.208Z,8.9
2023-03-29T10:25:42.512Z,9.1
2023-03-29T10:30:48.826Z,9.2
2023-03-29T10:35:55.182Z,9.7
2023-03-29T10:41:01.516Z,9.5
2023-03-29T10:46:07.800Z,9.4
2023-03-29T10:51:14.152Z,8.9
2023-03-29T10:56:19.577Z,9.6
2023-03-29T11:01:25.911Z,10.1
2023-03-29T11:06:32.222Z,10.6
2023-03-29T11:11:38.543Z,9.8
2023-03-29T11:16:44.880Z,10.1
2023-03-29T11:21:51.177Z,10.1
2023-03-29T11:26:57.511Z,10.4
2023-03-29T11:32:03.829Z,10.2
2023-03-29T11:37:10.154Z,10.7
2023-03-29T11:42:16.468Z,11
2023-03-29T11:47:22.808Z,11.1
2023-03-29T11:52:29.109Z,11.3
2023-03-29T11:57:35.447Z,10.7
2023-03-29T12:02:40.941Z,11.1
2023-03-29T12:07:47.203Z,11.6
2023-03-29T12:12:53.536Z,11.1
2023-03-29T12:17:59.851Z,12.4
2023-03-29T12:23:06.189Z,12.2
2023-03-29T12:28:12.495Z,12.1
2023-03-29T12:33:18.847Z,12.9
2023-03-29T12:38:25.202Z,11.5
2023-03-29T12:43:31.488Z,11.4
2023-03-29T12:48:37.778Z,11.1
2023-03-29T12:53:44.097Z,11.1
2023-03-29T12:58:50.445Z,11.1
2023-03-29T13:03:56.752Z,11
2023-03-29T13:09:02.186Z,11.4
2023-03-29T13:14:08.523Z,11
2023-03-29T13:19:14.832Z,11.3
2023-03-29T13:24:21.167Z,11
2023-03-29T13:29:27.494Z,11
2023-03-29T13:34:33.806Z,10.7
2023-03-29T13:44:46.454Z,11
2023-03-29T13:49:52.762Z,10.7
2023-03-29T13:54:59.091Z,11.2
2023-03-29T14:00:05.431Z,11.4
2023-03-29T14:05:11.745Z,11.2
2023-03-29T14:10:18.062Z,11.4
2023-03-29T14:15:23.504Z,11.5
2023-03-29T14:20:29.823Z,11.2
2023-03-29T14:25:36.162Z,11.2
2023-03-29T14:30:42.477Z,11.3
2023-03-29T14:35:48.781Z,11.2
2023-03-29T14:40:55.112Z,11.3
2023-03-29T14:46:01.443Z,11.1
2023-03-29T14:51:07.760Z,11.4
2023-03-29T14:56:14.081Z,11.7
2023-03-29T15:01:20.413Z,11.4
2023-03-29T15:06:26.752Z,11.3
2023-03-29T15:11:33.060Z,11.6
2023-03-29T15:16:39.389Z,11.5
2023-03-29T15:21:44.838Z,11.4
2023-03-29T15:26:51.138Z,11.4
2023-03-29T15:31:57.479Z,11.6
2023-03-29T15:37:03.802Z,11.6
2023-03-29T15:42:10.200Z,11.5
2023-03-29T15:47:16.464Z,11.6
2023-03-29T15:52:22.761Z,11.5
2023-03-29T15:57:29.080Z,11.4
2023-03-29T16:02:35.424Z,11.3
2023-03-29T16:07:41.722Z,11.2
2023-03-29T16:12:48.053Z,11.3
2023-03-29T16:17:54.365Z,11
2023-03-29T16:23:00.698Z,11
2023-03-29T16:28:06.148Z,10.9
2023-03-29T16:33:12.475Z,10.8
2023-03-29T16:38:18.813Z,10.9
2023-03-29T16:43:25.128Z,10.8
2023-03-29T16:48:31.438Z,10.6
2023-03-29T16:53:37.798Z,10.5
2023-03-29T16:58:44.086Z,10.5
2023-03-29T17:03:50.389Z,10.4
2023-03-29T17:08:56.716Z,10.4
2023-03-29T17:14:03.045Z,10.3
2023-03-29T17:19:09.368Z,10.2
2023-03-29T17:24:15.699Z,10
2023-03-29T17:29:22.016Z,9.9
2023-03-29T17:34:27.457Z,9.8
2023-03-29T17:39:33.790Z,9.8
2023-03-29T17:44:40.126Z,9.8
2023-03-29T17:49:46.438Z,10.1
2023-03-29T17:54:52.770Z,10.4
2023-03-29T19:01:14.969Z,9.4
2023-03-29T19:06:20.418Z,9.3
2023-03-29T19:11:25.873Z,9.4
2023-03-29T19:16:32.185Z,9.3
2023-03-29T19:21:38.515Z,9.2
2023-03-29T19:26:44.838Z,9.1
2023-03-29T19:31:51.171Z,9.1
2023-03-29T19:36:57.494Z,9
2023-03-29T19:42:03.801Z,9
2023-03-29T19:47:10.150Z,8.9
2023-03-29T19:52:16.452Z,8.9
2023-03-29T19:57:22.770Z,8.9
2023-03-29T20:02:28.245Z,8.8
2023-03-29T20:07:33.672Z,8.8
2023-03-29T20:12:40.000Z,8.8
2023-03-29T20:17:46.309Z,8.8
2023-03-29T20:22:52.654Z,8.7
2023-03-29T20:27:58.983Z,8.7
2023-03-29T20:33:05.284Z,8.6
2023-03-29T20:38:11.622Z,8.5
2023-03-29T20:43:17.973Z,8.4
2023-03-29T20:48:24.268Z,8.4
2023-03-29T20:53:30.596Z,8.4
2023-03-29T20:58:36.059Z,8.4
2023-03-29T21:03:41.501Z,8.4
2023-03-29T21:08:47.832Z,8.3
2023-03-29T21:13:54.155Z,8.3
2023-03-29T21:19:00.480Z,8.2
2023-03-29T21:24:05.931Z,8.1
2023-03-29T21:29:12.234Z,8
2023-03-29T21:34:18.557Z,8
2023-03-29T21:39:24.908Z,7.9
2023-03-29T21:44:31.209Z,7.7
2023-03-29T21:49:37.529Z,7.6
2023-03-29T21:54:43.867Z,7.6
2023-03-29T21:59:50.191Z,7.6
2023-03-29T22:04:56.525Z,7.6
2023-03-29T22:10:02.839Z,7.7
2023-03-29T22:15:09.172Z,7.7
2023-03-29T22:20:15.485Z,7.7
2023-03-29T22:25:21.804Z,7.9
2023-03-29T22:30:27.272Z,7.9
2023-03-29T22:35:33.594Z,8
2023-03-29T22:40:39.904Z,8
2023-03-29T22:45:46.246Z,8.1
2023-03-29T22:50:52.569Z,8.4
2023-03-29T22:55:58.903Z,8.6
2023-03-29T23:01:05.233Z,8.7
2023-03-29T23:06:11.539Z,8.6
2023-03-29T23:11:17.881Z,8.4
2023-03-29T23:16:24.207Z,8.2
2023-03-29T23:21:30.504Z,8.1
2023-03-29T23:26:36.873Z,8
2023-03-29T23:31:43.178Z,8
2023-03-29T23:36:48.624Z,8
2023-03-29T23:41:54.945Z,7.9
2023-03-29T23:47:01.276Z,7.9
2023-03-29T23:52:07.570Z,7.8
2023-03-29T23:57:13.916Z,7.8
